createdAt,value
2024-02-03T00:02:23.887Z,8.60
2024-02-03T00:04:52.237Z,8.20
2024-02-03T00:07:20.805Z,9.00
2024-02-03T00:09:49.357Z,8.40
2024-02-03T00:12:21.048Z,8.30
2024-02-03T00:14:49.514Z,7.10
2024-02-03T00:17:17.678Z,7.80
2024-02-03T00:19:46.167Z,7.00
2024-02-03T00:22:15.327Z,8.50
2024-02-03T00:24:43.796Z,8.20
2024-02-03T00:27:12.041Z,8.20
2024-02-03T00:29:40.157Z,8.30
2024-02-03T00:32:08.453Z,7.80
2024-02-03T00:34:36.923Z,7.20
2024-02-03T00:37:05.625Z,7.80
2024-02-03T00:39:33.796Z,7.40
2024-02-03T00:42:02.010Z,7.80
2024-02-03T00:44:30.219Z,7.30
2024-02-03T00:46:58.438Z,7.50
2024-02-03T00:49:26.753Z,7.40
2024-02-03T00:51:55.970Z,8.50
2024-02-03T00:54:24.554Z,9.20
2024-02-03T00:56:52.716Z,8.20
2024-02-03T00:59:21.187Z,10.80
2024-02-03T01:01:49.432Z,8.80
2024-02-03T01:04:18.196Z,13.40
2024-02-03T01:06:46.518Z,10.00
2024-02-03T01:09:19.044Z,7.40
2024-02-03T01:11:47.485Z,7.80
2024-02-03T01:14:15.594Z,6.40
2024-02-03T01:16:45.575Z,6.60
2024-02-03T01:19:13.862Z,5.10
2024-02-03T01:21:42.665Z,6.10
2024-02-03T01:24:10.964Z,6.20
2024-02-03T01:26:39.128Z,5.70
2024-02-03T01:29:07.474Z,5.70
2024-02-03T01:31:35.654Z,4.80
2024-02-03T01:34:04.074Z,4.70
2024-02-03T01:36:32.619Z,4.70
2024-02-03T01:39:00.885Z,4.70
2024-02-03T01:41:29.149Z,4.40
2024-02-03T01:43:57.628Z,4.40
2024-02-03T01:46:26.008Z,4.80
2024-02-03T01:48:54.595Z,4.60
2024-02-03T01:51:24.826Z,4.60
2024-02-03T01:53:54.349Z,5.20
2024-02-03T01:56:23.308Z,4.60
2024-02-03T01:58:51.492Z,4.50
2024-02-03T02:01:20.002Z,4.00
2024-02-03T02:03:48.345Z,3.90
2024-02-03T02:06:16.603Z,4.40
2024-02-03T02:08:44.906Z,4.50
2024-02-03T02:11:13.806Z,4.90
2024-02-03T02:13:41.965Z,4.90
2024-02-03T02:16:10.233Z,3.90
2024-02-03T02:18:38.852Z,4.40
2024-02-03T02:21:07.118Z,3.90
2024-02-03T02:23:35.477Z,4.20
2024-02-03T02:26:04.362Z,4.50
2024-02-03T02:28:33.576Z,4.70
2024-02-03T02:31:01.739Z,4.50
2024-02-03T02:33:30.049Z,4.40
2024-02-03T02:35:58.211Z,4.10
2024-02-03T02:38:26.465Z,3.80
2024-02-03T02:40:54.698Z,4.40
2024-02-03T02:43:23.421Z,4.20
2024-02-03T02:45:51.670Z,4.30
2024-02-03T02:48:20.293Z,3.60
2024-02-03T02:50:48.769Z,3.60
2024-02-03T02:53:16.828Z,3.80
2024-02-03T02:55:45.422Z,3.20
2024-02-03T02:58:13.606Z,3.70
2024-02-03T03:00:41.984Z,3.50
2024-02-03T03:03:10.198Z,3.10
2024-02-03T03:05:38.515Z,3.30
2024-02-03T03:08:06.689Z,2.90
2024-02-03T03:10:34.964Z,3.00
2024-02-03T03:13:03.475Z,3.20
2024-02-03T03:15:31.631Z,2.70
2024-02-03T03:18:00.107Z,3.20
2024-02-03T03:20:28.494Z,3.10
2024-02-03T03:22:56.903Z,3.30
2024-02-03T03:25:25.047Z,3.30
2024-02-03T03:27:53.316Z,2.70
2024-02-03T03:30:21.515Z,2.80
2024-02-03T03:32:52.188Z,2.60
2024-02-03T03:35:21.161Z,2.30
2024-02-03T03:37:49.314Z,2.90
2024-02-03T03:40:17.450Z,2.60
2024-02-03T03:42:49.344Z,2.20
2024-02-03T03:45:20.806Z,2.70
2024-02-03T03:47:49.093Z,2.30
2024-02-03T03:50:17.320Z,2.20
2024-02-03T03:52:45.687Z,2.40
2024-02-03T03:55:13.912Z,1.90
2024-02-03T03:57:42.341Z,2.10
2024-02-03T04:00:12.509Z,2.00
2024-02-03T04:02:41.151Z,1.90
2024-02-03T04:05:09.938Z,2.10
2024-02-03T04:07:38.119Z,2.10
2024-02-03T04:10:06.832Z,2.40
2024-02-03T04:12:35.093Z,2.20
2024-02-03T04:15:03.494Z,2.00
2024-02-03T04:17:31.838Z,2.00
2024-02-03T04:20:00.144Z,2.20
2024-02-03T04:22:28.685Z,2.30
2024-02-03T04:24:57.208Z,2.70
2024-02-03T04:27:25.679Z,2.70
2024-02-03T04:29:53.835Z,2.40
2024-02-03T04:32:22.118Z,3.10
2024-02-03T04:34:50.203Z,2.50
2024-02-03T04:37:18.801Z,2.50
2024-02-03T04:39:47.062Z,2.90
2024-02-03T04:42:15.789Z,2.60
2024-02-03T04:44:43.983Z,2.60
2024-02-03T04:47:12.432Z,2.70
2024-02-03T04:49:40.726Z,2.90
2024-02-03T04:52:09.226Z,3.00
2024-02-03T04:54:37.603Z,2.90
2024-02-03T04:57:06.396Z,2.90
2024-02-03T04:59:34.434Z,2.90
2024-02-03T05:02:02.572Z,3.10
2024-02-03T05:04:30.824Z,3.30
2024-02-03T05:06:59.153Z,3.60
2024-02-03T05:09:27.700Z,3.40
2024-02-03T05:11:56.175Z,2.80
2024-02-03T05:14:24.323Z,3.40
2024-02-03T05:16:52.710Z,3.00
2024-02-03T05:19:20.948Z,3.40
2024-02-03T05:21:49.286Z,3.00
2024-02-03T05:24:17.716Z,2.90
2024-02-03T05:26:46.023Z,3.40
2024-02-03T05:29:14.330Z,3.90
2024-02-03T05:31:42.453Z,3.10
2024-02-03T05:34:10.670Z,3.20
2024-02-03T05:36:38.963Z,3.20
2024-02-03T05:39:08.314Z,3.10
2024-02-03T05:41:36.554Z,2.60
2024-02-03T05:44:05.017Z,2.70
2024-02-03T05:46:33.240Z,3.00
2024-02-03T05:49:01.464Z,3.00
2024-02-03T05:51:29.930Z,3.30
2024-02-03T05:54:01.060Z,2.60
2024-02-03T05:56:29.303Z,3.00
2024-02-03T05:59:13.697Z,3.00
2024-02-03T06:01:45.991Z,3.30
2024-02-03T06:04:14.086Z,3.90
2024-02-03T06:06:42.395Z,3.20
2024-02-03T06:09:10.597Z,3.50
2024-02-03T06:11:38.627Z,3.00
2024-02-03T06:14:06.739Z,3.00
2024-02-03T06:16:34.984Z,3.40
2024-02-03T06:19:03.672Z,3.80
2024-02-03T06:21:32.092Z,3.60
2024-02-03T06:24:00.337Z,3.90
2024-02-03T06:26:32.871Z,2.80
2024-02-03T06:29:01.163Z,2.50
2024-02-03T06:31:29.386Z,3.00
2024-02-03T06:33:57.803Z,2.90
2024-02-03T06:36:26.032Z,2.90
2024-02-03T06:38:54.370Z,3.40
2024-02-03T06:41:23.161Z,3.30
2024-02-03T06:43:52.277Z,2.70
2024-02-03T06:46:20.543Z,2.60
2024-02-03T06:48:48.834Z,2.40
2024-02-03T06:51:17.188Z,2.50
2024-02-03T06:53:45.476Z,2.90
2024-02-03T06:56:13.746Z,3.20
2024-02-03T06:58:42.056Z,3.10
2024-02-03T07:01:10.231Z,2.50
2024-02-03T07:03:38.808Z,2.90
2024-02-03T07:06:08.011Z,2.50
2024-02-03T07:08:36.172Z,2.30
2024-02-03T07:11:04.535Z,2.90
2024-02-03T07:13:32.825Z,3.10
2024-02-03T07:16:01.200Z,3.10
2024-02-03T07:18:29.488Z,3.10
2024-02-03T07:20:58.239Z,2.90
2024-02-03T07:23:26.511Z,2.70
2024-02-03T07:25:54.698Z,2.70
2024-02-03T07:28:22.859Z,3.00
2024-02-03T07:30:51.060Z,2.60
2024-02-03T07:33:19.526Z,3.20
2024-02-03T07:35:47.835Z,3.10
2024-02-03T07:38:16.111Z,2.90
2024-02-03T07:40:44.245Z,3.10
2024-02-03T07:43:12.207Z,2.80
2024-02-03T07:45:40.163Z,2.30
2024-02-03T07:48:08.554Z,2.80
2024-02-03T07:50:36.616Z,2.70
2024-02-03T07:53:04.641Z,3.70
2024-02-03T07:55:32.583Z,3.50
2024-02-03T07:58:00.566Z,3.40
2024-02-03T08:00:28.953Z,3.40
2024-02-03T08:02:57.084Z,3.30
2024-02-03T08:05:25.599Z,3.40
2024-02-03T08:07:54.656Z,4.30
2024-02-03T08:10:24.178Z,4.00
2024-02-03T08:12:52.261Z,3.60
2024-02-03T08:15:21.044Z,3.60
2024-02-03T08:17:49.238Z,3.90
2024-02-03T08:20:17.536Z,3.90
2024-02-03T08:22:45.771Z,4.20
2024-02-03T08:25:14.041Z,5.10
2024-02-03T08:27:42.242Z,4.00
2024-02-03T08:30:11.590Z,4.10
2024-02-03T08:32:39.812Z,4.50
2024-02-03T08:37:39.727Z,4.30
2024-02-03T08:40:08.600Z,4.90
2024-02-03T08:42:36.789Z,4.80
2024-02-03T08:45:05.584Z,4.70
2024-02-03T08:47:33.661Z,4.80
2024-02-03T08:50:02.623Z,5.70
2024-02-03T08:52:30.715Z,5.90
2024-02-03T08:55:00.136Z,6.00
2024-02-03T08:57:28.647Z,5.40
2024-02-03T08:59:57.061Z,4.60
2024-02-03T09:02:25.346Z,4.40
2024-02-03T09:04:54.109Z,5.50
2024-02-03T09:07:22.229Z,5.00
2024-02-03T09:09:50.470Z,4.90
2024-02-03T09:12:18.921Z,4.10
2024-02-03T09:14:47.438Z,3.90
2024-02-03T09:17:15.536Z,3.80
2024-02-03T09:19:43.918Z,4.10
2024-02-03T09:22:12.154Z,3.90
2024-02-03T09:24:41.019Z,4.00
2024-02-03T09:27:09.322Z,4.40
2024-02-03T09:29:44.222Z,4.00
2024-02-03T09:32:12.321Z,3.60
2024-02-03T09:34:47.360Z,4.00
2024-02-03T09:39:47.299Z,3.30
2024-02-03T09:42:16.771Z,3.90
2024-02-03T09:44:46.197Z,3.40
2024-02-03T09:47:17.742Z,4.00
2024-02-03T09:49:46.350Z,3.60
2024-02-03T09:52:16.468Z,3.60
2024-02-03T09:54:48.948Z,3.50
2024-02-03T09:57:17.559Z,4.10
2024-02-03T09:59:52.104Z,3.90
2024-02-03T10:02:20.611Z,4.00
2024-02-03T10:04:49.352Z,4.00
2024-02-03T10:07:20.881Z,3.60
2024-02-03T10:12:22.911Z,3.40
2024-02-03T10:15:02.148Z,3.50
2024-02-03T10:17:30.255Z,3.80
2024-02-03T10:19:59.494Z,4.80
2024-02-03T10:22:28.323Z,4.20
2024-02-03T10:25:07.637Z,4.80
2024-02-03T10:27:35.861Z,4.10
2024-02-03T10:30:04.337Z,3.70
2024-02-03T10:32:32.657Z,4.60
2024-02-03T10:35:02.361Z,4.10
2024-02-03T10:37:30.694Z,3.50
2024-02-03T10:39:59.453Z,3.40
2024-02-03T10:42:32.331Z,3.40
2024-02-03T10:45:03.345Z,3.20
2024-02-03T10:47:33.623Z,3.20
2024-02-03T10:50:05.611Z,3.50
2024-02-03T10:52:34.775Z,3.90
2024-02-03T10:55:04.863Z,3.30
2024-02-03T10:57:33.257Z,3.50
2024-02-03T11:00:06.229Z,3.70
2024-02-03T11:02:35.676Z,3.10
2024-02-03T11:05:03.990Z,3.30
2024-02-03T11:07:32.859Z,3.20
2024-02-03T11:10:05.599Z,2.90
2024-02-03T11:12:38.332Z,2.80
2024-02-03T11:15:16.210Z,3.10
2024-02-03T11:17:45.750Z,2.70
2024-02-03T11:20:21.626Z,3.00
2024-02-03T11:22:54.287Z,3.40
2024-02-03T11:25:22.399Z,3.30
2024-02-03T11:27:52.980Z,3.30
2024-02-03T11:30:21.235Z,3.50
2024-02-03T11:32:49.485Z,3.40
2024-02-03T11:35:19.038Z,2.90
2024-02-03T11:37:47.565Z,3.30
2024-02-03T11:40:16.193Z,3.20
2024-02-03T11:42:45.094Z,3.20
2024-02-03T11:45:16.428Z,4.10
2024-02-03T11:47:45.042Z,3.80
2024-02-03T11:50:13.066Z,3.10
2024-02-03T11:52:47.744Z,3.70
2024-02-03T11:55:16.045Z,4.20
2024-02-03T11:57:44.289Z,3.40
2024-02-03T12:00:14.643Z,3.20
2024-02-03T12:02:43.134Z,4.30
2024-02-03T12:05:14.561Z,3.40
2024-02-03T12:07:43.855Z,3.00
2024-02-03T12:10:14.301Z,2.90
2024-02-03T12:12:42.532Z,3.10
2024-02-03T12:15:12.265Z,3.10
2024-02-03T12:17:41.537Z,2.60
2024-02-03T12:20:26.087Z,3.10
2024-02-03T12:22:54.514Z,3.00
2024-02-03T12:25:23.907Z,2.80
2024-02-03T12:27:53.647Z,2.90
2024-02-03T12:30:23.973Z,2.60
2024-02-03T12:32:52.492Z,2.70
2024-02-03T12:35:20.706Z,2.90
2024-02-03T12:37:48.862Z,2.70
2024-02-03T12:40:16.910Z,3.10
2024-02-03T12:42:45.123Z,2.90
2024-02-03T12:45:13.786Z,2.70
2024-02-03T12:47:45.799Z,2.70
2024-02-03T12:50:14.145Z,2.80
2024-02-03T12:52:43.288Z,2.90
2024-02-03T12:55:11.627Z,2.60
2024-02-03T12:57:39.935Z,3.30
2024-02-03T13:00:09.065Z,3.20
2024-02-03T13:02:37.683Z,2.90
2024-02-03T13:05:06.265Z,3.10
2024-02-03T13:07:34.544Z,3.10
2024-02-03T13:10:02.716Z,3.00
2024-02-03T13:12:31.733Z,3.30
2024-02-03T13:15:00.124Z,2.90
2024-02-03T13:17:30.386Z,3.50
2024-02-03T13:19:59.509Z,3.10
2024-02-03T13:22:27.840Z,4.30
2024-02-03T13:24:56.091Z,3.10
2024-02-03T13:27:24.531Z,3.00
2024-02-03T13:29:53.417Z,3.10
2024-02-03T13:32:22.023Z,2.90
2024-02-03T13:34:50.951Z,2.60
2024-02-03T13:37:19.561Z,3.20
2024-02-03T13:39:47.991Z,3.00
2024-02-03T13:42:17.553Z,2.80
2024-02-03T13:44:45.953Z,2.70
2024-02-03T13:47:14.025Z,3.20
2024-02-03T13:49:42.321Z,2.60
2024-02-03T13:52:13.985Z,3.00
2024-02-03T13:54:42.465Z,3.70
2024-02-03T13:57:10.647Z,2.80
2024-02-03T13:59:38.943Z,2.60
2024-02-03T14:02:07.565Z,2.40
2024-02-03T14:04:35.992Z,3.10
2024-02-03T14:07:05.352Z,2.50
2024-02-03T14:09:33.586Z,5.80
2024-02-03T14:12:04.894Z,3.50
2024-02-03T14:14:33.185Z,3.00
2024-02-03T14:17:01.429Z,3.00
2024-02-03T14:19:29.731Z,4.70
2024-02-03T14:21:58.315Z,4.90
2024-02-03T14:24:26.930Z,12.10
2024-02-03T14:26:55.306Z,7.80
2024-02-03T14:29:23.529Z,7.90
2024-02-03T14:31:51.588Z,4.30
2024-02-03T14:34:19.816Z,2.30
2024-02-03T14:36:48.609Z,2.40
2024-02-03T14:39:20.338Z,2.50
2024-02-03T14:41:48.988Z,2.30
2024-02-03T14:44:18.062Z,2.50
2024-02-03T14:46:46.570Z,2.40
2024-02-03T14:49:15.089Z,2.60
2024-02-03T14:51:43.940Z,2.60
2024-02-03T14:54:13.316Z,4.30
2024-02-03T14:56:42.056Z,3.70
2024-02-03T14:59:10.201Z,3.60
2024-02-03T15:01:38.482Z,3.40
2024-02-03T15:04:08.945Z,3.60
2024-02-03T15:06:37.931Z,2.90
2024-02-03T15:09:09.289Z,5.30
2024-02-03T15:11:37.654Z,27.20
2024-02-03T15:14:06.202Z,8.70
2024-02-03T15:16:34.393Z,11.00
2024-02-03T15:19:02.600Z,5.00
2024-02-03T15:21:31.379Z,4.10
2024-02-03T15:23:59.682Z,4.30
2024-02-03T15:26:28.100Z,6.00
2024-02-03T15:28:56.702Z,3.60
2024-02-03T15:31:27.039Z,2.90
2024-02-03T15:33:55.683Z,5.80
2024-02-03T15:36:24.264Z,3.20
2024-02-03T15:38:52.549Z,3.70
2024-02-03T15:41:20.882Z,3.30
2024-02-03T15:43:49.047Z,3.30
2024-02-03T15:46:18.111Z,3.40
2024-02-03T15:48:46.539Z,3.70
2024-02-03T15:51:14.830Z,5.30
2024-02-03T15:53:43.170Z,6.80
2024-02-03T15:56:11.717Z,4.90
2024-02-03T15:58:40.462Z,2.90
2024-02-03T16:01:08.756Z,3.90
2024-02-03T16:03:37.477Z,3.10
2024-02-03T16:06:06.338Z,2.90
2024-02-03T16:08:34.557Z,2.90
2024-02-03T16:11:03.216Z,3.40
2024-02-03T16:13:31.397Z,3.00
2024-02-03T16:16:00.259Z,3.30
2024-02-03T16:18:28.993Z,5.70
2024-02-03T16:20:57.144Z,13.80
2024-02-03T16:23:25.356Z,6.60
2024-02-03T16:25:53.621Z,1.50
2024-02-03T16:28:21.800Z,1.80
2024-02-03T16:30:49.971Z,2.30
2024-02-03T16:33:18.404Z,1.70
2024-02-03T16:35:46.713Z,2.00
2024-02-03T16:38:15.119Z,1.70
2024-02-03T16:40:43.396Z,1.70
2024-02-03T16:43:11.827Z,1.50
2024-02-03T16:45:40.531Z,1.40
2024-02-03T16:48:09.006Z,2.00
2024-02-03T16:50:37.187Z,1.80
2024-02-03T16:53:05.457Z,1.80
2024-02-03T16:55:36.081Z,1.70
2024-02-03T16:58:04.570Z,1.40
2024-02-03T17:00:38.614Z,1.60
2024-02-03T17:03:10.248Z,1.80
2024-02-03T17:05:41.899Z,1.60
2024-02-03T17:08:12.986Z,2.80
2024-02-03T17:10:41.448Z,2.10
2024-02-03T17:13:09.951Z,2.80
2024-02-03T17:15:38.456Z,1.90
2024-02-03T17:18:07.150Z,2.10
2024-02-03T17:20:35.305Z,2.20
2024-02-03T17:23:03.598Z,2.40
2024-02-03T17:25:34.762Z,2.20
2024-02-03T17:28:03.256Z,2.50
2024-02-03T17:30:31.768Z,4.40
2024-02-03T17:33:00.117Z,5.00
2024-02-03T17:35:28.661Z,3.10
2024-02-03T17:37:56.934Z,5.30
2024-02-03T17:40:25.127Z,9.00
2024-02-03T17:42:53.400Z,6.90
2024-02-03T17:45:24.571Z,4.80
2024-02-03T17:47:53.462Z,6.20
2024-02-03T17:50:21.686Z,8.80
2024-02-03T17:52:49.985Z,4.60
2024-02-03T17:55:18.446Z,3.10
2024-02-03T17:57:47.297Z,3.00
2024-02-03T18:00:16.399Z,6.10
2024-02-03T18:02:44.731Z,5.20
2024-02-03T18:05:13.226Z,4.00
2024-02-03T18:07:41.399Z,4.00
2024-02-03T18:10:10.392Z,3.30
2024-02-03T18:12:38.673Z,3.30
2024-02-03T18:15:08.138Z,3.10
2024-02-03T18:17:36.661Z,3.00
2024-02-03T18:20:05.430Z,3.10
2024-02-03T18:22:33.790Z,3.10
2024-02-03T18:25:02.662Z,2.90
2024-02-03T18:27:30.964Z,3.30
2024-02-03T18:29:59.129Z,2.90
2024-02-03T18:32:27.716Z,3.10
2024-02-03T18:34:55.878Z,2.70
2024-02-03T18:37:24.155Z,2.90
2024-02-03T18:39:54.037Z,3.40
2024-02-03T18:42:24.712Z,4.10
2024-02-03T18:44:53.080Z,4.10
2024-02-03T18:47:21.492Z,3.00
2024-02-03T18:49:49.786Z,2.60
2024-02-03T18:52:18.116Z,2.70
2024-02-03T18:54:46.526Z,3.60
2024-02-03T18:57:15.080Z,3.40
2024-02-03T18:59:43.146Z,2.90
2024-02-03T19:02:11.215Z,3.00
2024-02-03T19:04:39.369Z,3.90
2024-02-03T19:07:07.559Z,3.40
2024-02-03T19:09:38.010Z,3.40
2024-02-03T19:12:09.426Z,3.40
2024-02-03T19:14:38.862Z,3.50
2024-02-03T19:17:07.125Z,3.40
2024-02-03T19:19:37.463Z,3.50
2024-02-03T19:22:05.844Z,3.00
2024-02-03T19:24:34.256Z,3.20
2024-02-03T19:27:02.582Z,3.20
2024-02-03T19:29:30.785Z,3.50
2024-02-03T19:31:58.920Z,3.40
2024-02-03T19:34:28.300Z,3.70
2024-02-03T19:36:57.673Z,3.30
2024-02-03T19:39:26.854Z,3.30
2024-02-03T19:41:54.990Z,3.30
2024-02-03T19:44:23.078Z,6.10
2024-02-03T19:46:51.437Z,16.00
2024-02-03T19:49:20.658Z,10.50
2024-02-03T19:51:49.419Z,7.60
2024-02-03T19:54:18.248Z,16.10
2024-02-03T19:56:46.697Z,4.60
2024-02-03T19:59:14.969Z,3.50
2024-02-03T20:01:43.445Z,3.60
2024-02-03T20:04:12.022Z,3.30
2024-02-03T20:06:40.402Z,3.80
2024-02-03T20:09:10.335Z,2.90
2024-02-03T20:11:38.697Z,3.70
2024-02-03T20:14:06.793Z,4.40
2024-02-03T20:16:35.103Z,5.50
2024-02-03T20:19:03.497Z,2.90
2024-02-03T20:21:31.876Z,2.70
2024-02-03T20:24:00.190Z,3.00
2024-02-03T20:26:28.342Z,3.10
2024-02-03T20:28:56.780Z,2.80
2024-02-03T20:31:25.241Z,3.20
2024-02-03T20:33:53.911Z,3.70
2024-02-03T20:36:22.691Z,2.20
2024-02-03T20:38:50.973Z,2.20
2024-02-03T20:41:25.825Z,2.70
2024-02-03T20:43:54.060Z,2.30
2024-02-03T20:46:22.365Z,3.10
2024-02-03T20:48:51.007Z,2.60
2024-02-03T20:51:19.637Z,2.70
2024-02-03T20:53:48.026Z,2.40
2024-02-03T20:56:20.391Z,2.80
2024-02-03T20:58:48.833Z,2.90
2024-02-03T21:01:17.581Z,2.30
2024-02-03T21:03:46.413Z,2.40
2024-02-03T21:06:16.785Z,2.30
2024-02-03T21:08:45.436Z,2.80
2024-02-03T21:11:13.867Z,3.20
2024-02-03T21:13:42.108Z,3.10
2024-02-03T21:16:10.522Z,3.20
2024-02-03T21:18:38.892Z,2.70
2024-02-03T21:21:07.303Z,3.50
2024-02-03T21:23:35.654Z,3.50
2024-02-03T21:26:03.795Z,3.70
2024-02-03T21:28:31.945Z,10.90
2024-02-03T21:31:00.339Z,4.70
2024-02-03T21:33:29.155Z,4.00
2024-02-03T21:35:57.570Z,3.60
2024-02-03T21:38:25.918Z,3.60
2024-02-03T21:40:54.152Z,3.30
2024-02-03T21:43:22.346Z,3.10
2024-02-03T21:45:50.416Z,3.80
2024-02-03T21:48:19.071Z,3.20
2024-02-03T21:50:47.473Z,3.70
2024-02-03T21:53:15.551Z,2.80
2024-02-03T21:55:43.612Z,2.90
2024-02-03T21:58:11.834Z,3.00
2024-02-03T22:00:42.255Z,3.00
2024-02-03T22:03:10.346Z,2.90
2024-02-03T22:05:38.672Z,3.70
2024-02-03T22:08:07.862Z,3.80
2024-02-03T22:10:35.918Z,2.80
2024-02-03T22:13:04.259Z,3.20
2024-02-03T22:15:32.460Z,3.50
2024-02-03T22:18:01.218Z,3.90
2024-02-03T22:20:29.176Z,3.70
2024-02-03T22:22:57.203Z,3.30
2024-02-03T22:25:25.471Z,3.50
2024-02-03T22:27:53.708Z,4.10
2024-02-03T22:30:22.919Z,3.30
2024-02-03T22:32:51.203Z,3.10
2024-02-03T22:35:19.803Z,3.40
2024-02-03T22:37:48.287Z,3.20
2024-02-03T22:40:16.791Z,3.30
2024-02-03T22:42:46.420Z,2.80
2024-02-03T22:45:14.638Z,3.60
2024-02-03T22:47:42.892Z,3.20
2024-02-03T22:50:11.822Z,2.50
2024-02-03T22:52:42.027Z,3.10
2024-02-03T22:55:10.576Z,3.20
2024-02-03T22:57:39.017Z,3.00
2024-02-03T23:00:17.601Z,3.60
2024-02-03T23:02:45.885Z,3.40
2024-02-03T23:05:16.953Z,3.10
2024-02-03T23:07:45.106Z,3.20
2024-02-03T23:10:13.486Z,3.10
2024-02-03T23:12:43.782Z,3.50
2024-02-03T23:15:11.974Z,3.20
2024-02-03T23:17:44.977Z,3.30
2024-02-03T23:20:17.540Z,3.80
2024-02-03T23:22:46.203Z,2.70
2024-02-03T23:25:14.465Z,3.00
2024-02-03T23:27:43.449Z,3.10
2024-02-03T23:30:12.813Z,2.80
2024-02-03T23:32:41.677Z,3.40
2024-02-03T23:35:10.379Z,3.00
2024-02-03T23:37:38.790Z,2.30
2024-02-03T23:40:08.354Z,2.70
2024-02-03T23:42:36.553Z,2.80
2024-02-03T23:45:05.625Z,3.20
2024-02-03T23:47:33.825Z,2.50
2024-02-03T23:50:02.384Z,3.20
2024-02-03T23:52:30.867Z,2.50
2024-02-03T23:54:59.103Z,2.20
2024-02-03T23:57:27.447Z,2.50
2024-02-03T23:59:56.732Z,2.40
